Time;durP1;ratioP1;P1;durP2;ratioP2;P2;SDS_P1;SDS_P2;PMS_P1;PMS_P2;Temp;Humidity;BMP_temperature;BMP_pressure;BME280_temperature;BME280_humidity;BME280_pressure;Samples;Min_cycle;Max_cycle;Signal;HPM_P1;HPM_P2
2022/08/15 00:01:36;;;;;;;15.88;9.57;;;24.60;99.90;;;;;;4959953;28;20220;-63
2022/08/15 00:04:03;;;;;;;10.38;9.45;;;24.50;99.90;;;;;;4966022;28;20200;-63
2022/08/15 00:06:42;;;;;;;10.00;8.50;;;24.50;99.90;;;;;;4961917;28;20738;-62
2022/08/15 00:09:21;;;;;;;10.20;9.13;;;24.40;99.90;;;;;;4960002;28;20266;-63
2022/08/15 00:11:53;;;;;;;12.75;9.32;;;24.40;99.90;;;;;;4959198;28;20200;-63
2022/08/15 00:14:31;;;;;;;9.07;8.10;;;24.40;99.90;;;;;;4976072;28;20388;-63
2022/08/15 00:16:59;;;;;;;11.95;9.55;;;24.40;99.90;;;;;;4974346;28;20691;-63
2022/08/15 00:19:31;;;;;;;9.52;8.80;;;24.30;99.90;;;;;;4969102;28;20257;-63
2022/08/15 00:22:04;;;;;;;9.82;8.93;;;24.30;99.90;;;;;;4968513;28;20209;-63
2022/08/15 00:24:32;;;;;;;9.40;8.68;;;24.30;99.90;;;;;;4968229;28;20264;-63
2022/08/15 00:26:59;;;;;;;10.27;9.18;;;24.20;99.90;;;;;;4968277;28;20722;-63
2022/08/15 00:29:27;;;;;;;9.85;8.95;;;24.20;99.90;;;;;;4968169;28;20209;-62
2022/08/15 00:31:53;;;;;;;10.27;9.15;;;24.20;99.90;;;;;;4967426;28;20726;-63
2022/08/15 00:34:20;;;;;;;11.07;10.02;;;24.20;99.90;;;;;;4968264;28;20184;-63
2022/08/15 00:36:49;;;;;;;10.40;9.23;;;24.10;99.90;;;;;;4967762;28;20250;-63
2022/08/15 00:39:17;;;;;;;10.77;9.65;;;24.10;99.90;;;;;;4968212;28;20188;-63
2022/08/15 00:41:43;;;;;;;10.20;9.27;;;24.10;99.90;;;;;;4968288;28;20301;-63
2022/08/15 00:44:23;;;;;;;13.43;10.70;;;24.00;99.90;;;;;;4967919;28;20259;-63
2022/08/15 00:46:54;;;;;;;10.30;9.18;;;24.00;99.90;;;;;;4966399;28;20183;-63
2022/08/15 00:49:22;;;;;;;10.10;9.10;;;24.00;99.90;;;;;;4968090;28;20225;-63
2022/08/15 00:52:01;;;;;;;14.02;9.38;;;24.00;99.90;;;;;;4967849;28;20186;-63
2022/08/15 00:54:33;;;;;;;9.73;8.75;;;23.90;99.90;;;;;;4967847;28;20219;-63
2022/08/15 00:57:07;;;;;;;9.23;8.43;;;23.90;99.90;;;;;;4968107;28;20217;-62
2022/08/15 00:59:35;;;;;;;9.63;8.77;;;23.80;99.90;;;;;;4965263;28;20216;-64
2022/08/15 01:02:08;;;;;;;10.52;9.52;;;23.80;99.90;;;;;;4950706;28;20209;-63
2022/08/15 01:04:35;;;;;;;10.93;9.18;;;23.80;99.90;;;;;;4948220;28;20626;-64
2022/08/15 01:07:01;;;;;;;10.82;8.93;;;23.70;99.90;;;;;;4948697;28;20213;-64
2022/08/15 01:09:28;;;;;;;11.02;9.25;;;23.70;99.90;;;;;;4948381;28;20187;-64
2022/08/15 01:12:00;;;;;;;11.07;9.98;;;23.70;99.90;;;;;;4948785;28;20277;-64
2022/08/15 01:14:26;;;;;;;10.48;9.50;;;23.60;99.90;;;;;;4948251;28;20189;-64
2022/08/15 01:16:52;;;;;;;10.95;9.88;;;23.60;99.90;;;;;;4948379;28;20209;-64
2022/08/15 01:19:23;;;;;;;10.15;9.25;;;23.50;99.90;;;;;;4948295;28;20641;-64
2022/08/15 01:22:08;;;;;;;11.63;9.20;;;23.50;99.90;;;;;;4948467;28;20217;-64
2022/08/15 01:24:46;;;;;;;10.50;9.25;;;23.50;99.90;;;;;;4948266;29;20177;-64
2022/08/15 01:27:13;;;;;;;10.70;9.75;;;23.40;99.90;;;;;;4948186;29;20177;-64
2022/08/15 01:29:38;;;;;;;12.73;9.80;;;23.40;99.90;;;;;;4947823;28;20663;-64
2022/08/15 01:32:04;;;;;;;9.63;8.70;;;23.30;99.90;;;;;;4947808;28;20209;-63
2022/08/15 01:34:29;;;;;;;11.35;9.55;;;23.30;99.90;;;;;;4947730;28;20261;-63
2022/08/15 01:36:56;;;;;;;10.75;9.35;;;23.30;99.90;;;;;;4945958;28;20198;-66
2022/08/15 01:39:40;;;;;;;10.38;9.38;;;23.30;99.90;;;;;;4961250;28;20241;-63
2022/08/15 01:42:16;;;;;;;11.38;9.38;;;23.20;99.90;;;;;;4959763;28;20370;-63
2022/08/15 01:44:47;;;;;;;10.57;9.57;;;23.20;99.90;;;;;;4960046;28;20233;-63
2022/08/15 01:47:46;;;;;;;12.30;10.30;;;23.20;99.90;;;;;;4959596;28;20275;-62
2022/08/15 01:50:17;;;;;;;12.70;9.63;;;23.10;99.90;;;;;;4959317;28;20201;-63
2022/08/15 01:53:04;;;;;;;10.88;9.80;;;23.10;99.90;;;;;;4957109;28;20228;-64
2022/08/15 01:56:11;;;;;;;10.52;9.60;;;23.00;99.90;;;;;;4959233;28;20658;-63
2022/08/15 01:58:40;;;;;;;11.18;10.07;;;23.00;99.90;;;;;;4931382;29;20240;-65
2022/08/15 02:01:12;;;;;;;12.35;9.82;;;22.90;99.90;;;;;;4970211;28;20312;-64
2022/08/15 02:03:39;;;;;;;11.38;10.18;;;22.90;99.90;;;;;;4957561;28;20481;-64
2022/08/15 02:06:12;;;;;;;11.35;10.30;;;22.90;99.90;;;;;;4974125;28;20194;-65
2022/08/15 02:08:39;;;;;;;11.52;10.52;;;22.90;99.90;;;;;;4952785;28;20221;-65
2022/08/15 02:11:12;;;;;;;11.80;10.65;;;22.80;99.90;;;;;;4977100;28;20217;-65
2022/08/15 02:13:38;;;;;;;11.38;10.20;;;22.80;99.90;;;;;;4958510;28;20559;-64
2022/08/15 02:16:04;;;;;;;11.75;10.65;;;22.70;99.90;;;;;;4966299;28;20198;-65
2022/08/15 02:18:30;;;;;;;13.18;10.75;;;22.70;99.90;;;;;;4958928;28;20234;-65
2022/08/15 02:20:59;;;;;;;11.75;10.60;;;22.70;99.90;;;;;;4972549;28;20220;-64
2022/08/15 02:23:24;;;;;;;11.95;10.77;;;22.60;99.90;;;;;;4959826;28;20759;-64
2022/08/15 02:25:53;;;;;;;11.65;10.52;;;22.60;99.90;;;;;;4975462;28;20282;-65
2022/08/15 02:28:19;;;;;;;12.55;11.38;;;22.60;99.90;;;;;;4957274;28;20202;-64
2022/08/15 02:30:45;;;;;;;12.95;11.68;;;22.60;99.90;;;;;;4972314;28;20235;-64
2022/08/15 02:33:11;;;;;;;11.93;10.70;;;22.50;99.90;;;;;;4962161;28;20313;-66
2022/08/15 02:35:38;;;;;;;11.63;10.63;;;22.40;99.90;;;;;;4977128;28;20534;-64
2022/08/15 02:38:05;;;;;;;11.45;10.35;;;22.40;99.90;;;;;;4959787;28;20214;-63
2022/08/15 02:40:33;;;;;;;11.48;10.52;;;22.40;99.90;;;;;;4981626;28;20762;-64
2022/08/15 02:43:07;;;;;;;13.00;11.85;;;22.40;99.90;;;;;;4963494;28;20229;-64
2022/08/15 02:45:37;;;;;;;11.48;10.20;;;22.40;99.90;;;;;;4977584;28;20296;-64
2022/08/15 02:48:04;;;;;;;12.15;11.15;;;22.30;99.90;;;;;;4964177;28;20669;-64
2022/08/15 02:50:30;;;;;;;11.75;10.63;;;22.30;99.90;;;;;;4973108;28;20202;-64
2022/08/15 02:52:55;;;;;;;12.55;11.40;;;22.30;99.90;;;;;;4968019;28;20225;-64
2022/08/15 02:55:21;;;;;;;11.85;9.80;;;22.30;99.90;;;;;;4971562;28;20729;-64
2022/08/15 02:57:47;;;;;;;12.43;11.13;;;22.20;99.90;;;;;;4976747;28;20693;-64
2022/08/15 03:00:15;;;;;;;11.70;10.60;;;22.20;99.90;;;;;;4965380;28;20293;-64
2022/08/15 03:02:54;;;;;;;12.38;11.18;;;22.20;99.90;;;;;;4970280;28;20257;-64
2022/08/15 03:05:22;;;;;;;11.68;10.68;;;22.20;99.90;;;;;;4969106;28;20611;-64
2022/08/15 03:07:47;;;;;;;12.13;11.02;;;22.20;99.90;;;;;;4968396;28;20211;-64
2022/08/15 03:10:13;;;;;;;13.10;11.85;;;22.20;99.90;;;;;;4986374;28;20231;-64
2022/08/15 03:13:00;;;;;;;12.18;11.07;;;22.10;99.90;;;;;;4977927;28;20212;-64
2022/08/15 03:15:32;;;;;;;15.80;12.48;;;22.20;99.90;;;;;;4964357;28;20211;-64
2022/08/15 03:17:58;;;;;;;12.32;11.13;;;22.10;99.90;;;;;;4967783;28;20245;-65
2022/08/15 03:20:24;;;;;;;17.52;11.60;;;22.10;99.90;;;;;;4966583;28;20234;-65
2022/08/15 03:22:53;;;;;;;12.80;11.05;;;22.10;99.90;;;;;;4968153;28;20615;-66
2022/08/15 03:25:21;;;;;;;12.15;10.90;;;22.10;99.90;;;;;;4987812;28;20185;-65
2022/08/15 03:27:47;;;;;;;12.68;11.43;;;22.10;99.90;;;;;;4966056;28;20579;-65
2022/08/15 03:30:15;;;;;;;12.93;11.80;;;22.00;99.90;;;;;;4974993;28;20290;-65
2022/08/15 03:32:50;;;;;;;13.25;11.82;;;22.00;99.90;;;;;;4962912;28;20296;-64
2022/08/15 03:35:17;;;;;;;13.63;11.93;;;22.00;99.90;;;;;;4971690;28;20228;-64
2022/08/15 03:37:42;;;;;;;13.73;12.40;;;22.00;99.90;;;;;;4967219;28;20674;-64
2022/08/15 03:40:08;;;;;;;12.98;11.77;;;21.90;99.90;;;;;;4952775;28;20187;-65
2022/08/15 03:42:34;;;;;;;13.95;12.30;;;21.90;99.90;;;;;;4966508;28;20206;-63
2022/08/15 03:45:08;;;;;;;14.30;12.77;;;21.90;99.90;;;;;;4959737;28;20187;-63
2022/08/15 03:47:33;;;;;;;12.55;11.10;;;21.90;99.90;;;;;;4954880;28;20216;-63
2022/08/15 03:49:59;;;;;;;12.50;11.20;;;21.80;99.90;;;;;;4953740;28;20190;-63
2022/08/15 03:52:25;;;;;;;13.93;12.63;;;21.80;99.90;;;;;;4961620;28;20288;-63
2022/08/15 03:54:51;;;;;;;15.05;13.40;;;21.80;99.90;;;;;;4951040;28;20254;-62
2022/08/15 03:57:17;;;;;;;13.30;12.05;;;21.80;99.90;;;;;;4980601;28;20209;-62
2022/08/15 03:59:42;;;;;;;14.32;12.85;;;21.80;99.90;;;;;;4958299;28;20711;-62
2022/08/15 04:02:12;;;;;;;13.88;12.55;;;21.80;99.90;;;;;;4980475;28;20821;-63
2022/08/15 04:04:38;;;;;;;13.88;12.50;;;21.80;99.90;;;;;;4960759;28;20766;-63
2022/08/15 04:07:04;;;;;;;14.15;12.60;;;21.80;99.90;;;;;;4964857;28;20689;-63
2022/08/15 04:09:30;;;;;;;15.57;13.77;;;21.80;99.90;;;;;;4960858;28;20389;-63
2022/08/15 04:11:57;;;;;;;13.48;12.07;;;21.80;99.90;;;;;;4967042;28;20291;-63
2022/08/15 04:14:22;;;;;;;14.55;13.15;;;21.80;99.90;;;;;;4955200;28;20204;-63
2022/08/15 04:16:48;;;;;;;14.30;12.90;;;21.80;99.90;;;;;;4976984;28;20198;-63
2022/08/15 04:19:15;;;;;;;13.80;12.40;;;21.80;99.90;;;;;;4958129;28;20216;-63
2022/08/15 04:21:41;;;;;;;14.18;12.98;;;21.80;99.90;;;;;;4974178;28;20698;-63
2022/08/15 04:24:07;;;;;;;13.88;12.60;;;21.80;99.90;;;;;;4958384;28;20212;-63
2022/08/15 04:26:34;;;;;;;14.30;13.00;;;21.80;99.90;;;;;;4975090;28;20201;-63
2022/08/15 04:29:00;;;;;;;13.93;12.20;;;21.80;99.90;;;;;;4956106;28;20237;-63
2022/08/15 04:31:26;;;;;;;13.98;12.57;;;21.80;99.90;;;;;;4979871;28;20208;-63
2022/08/15 04:33:52;;;;;;;15.23;13.63;;;21.80;99.90;;;;;;4953870;28;20206;-63
2022/08/15 04:36:19;;;;;;;15.80;13.60;;;21.90;99.90;;;;;;4980751;28;20604;-63
2022/08/15 04:38:47;;;;;;;14.57;13.25;;;21.90;99.90;;;;;;4958776;28;20623;-63
2022/08/15 04:41:13;;;;;;;15.05;13.50;;;21.90;99.90;;;;;;4981369;28;20224;-63
2022/08/15 04:43:40;;;;;;;15.57;14.13;;;21.90;99.90;;;;;;4960741;28;20225;-63
2022/08/15 04:46:06;;;;;;;17.90;13.30;;;21.90;99.90;;;;;;4974576;28;20719;-63
2022/08/15 04:48:32;;;;;;;13.90;12.60;;;22.00;99.90;;;;;;4957501;28;20206;-63
2022/08/15 04:50:59;;;;;;;15.18;13.77;;;22.00;99.90;;;;;;4978828;28;20559;-63
2022/08/15 04:53:28;;;;;;;14.55;13.13;;;22.00;99.90;;;;;;4964807;28;20217;-63
2022/08/15 04:55:55;;;;;;;17.17;14.15;;;22.00;99.90;;;;;;4980361;28;20193;-64
2022/08/15 04:58:21;;;;;;;14.40;13.13;;;22.10;99.90;;;;;;4963822;28;20677;-63
2022/08/15 05:00:56;;;;;;;15.13;13.48;;;22.10;99.90;;;;;;4975703;28;20279;-63
2022/08/15 05:03:22;;;;;;;13.95;12.68;;;22.20;99.90;;;;;;4954269;28;20221;-63
2022/08/15 05:05:52;;;;;;;13.60;12.10;;;22.20;99.90;;;;;;4963029;28;20200;-63
2022/08/15 05:08:18;;;;;;;15.70;12.85;;;22.30;99.90;;;;;;4974840;28;20205;-63
2022/08/15 05:10:49;;;;;;;14.40;13.07;;;22.30;99.90;;;;;;4972729;28;20212;-63
2022/08/15 05:13:18;;;;;;;13.15;11.90;;;22.40;99.90;;;;;;4953944;28;20316;-63
2022/08/15 05:15:45;;;;;;;13.48;11.85;;;22.40;99.90;;;;;;4973484;28;20212;-63
2022/08/15 05:18:11;;;;;;;14.20;12.60;;;22.40;99.90;;;;;;4959029;28;20640;-64
2022/08/15 05:20:39;;;;;;;14.05;12.63;;;22.50;99.90;;;;;;4969040;28;20225;-63
2022/08/15 05:23:07;;;;;;;17.73;12.45;;;22.50;99.90;;;;;;4972134;28;20310;-63
2022/08/15 05:25:40;;;;;;;12.52;11.43;;;22.50;99.90;;;;;;4955081;28;20190;-63
2022/08/15 05:28:06;;;;;;;11.82;10.73;;;22.60;99.90;;;;;;4953851;28;20205;-63
2022/08/15 05:30:32;;;;;;;11.85;10.68;;;22.60;99.90;;;;;;4958609;28;20559;-64
2022/08/15 05:33:07;;;;;;;12.23;11.02;;;22.70;99.90;;;;;;4976134;28;20762;-63
2022/08/15 05:35:34;;;;;;;11.77;10.68;;;22.70;99.90;;;;;;4974879;28;20231;-64
2022/08/15 05:38:04;;;;;;;12.60;11.30;;;22.80;99.90;;;;;;4972588;28;20202;-64
2022/08/15 05:40:49;;;;;;;11.57;10.40;;;22.90;99.90;;;;;;4953882;28;20239;-64
2022/08/15 05:43:29;;;;;;;13.50;12.20;;;23.00;99.90;;;;;;4950112;28;20210;-62
2022/08/15 05:46:06;;;;;;;12.63;11.52;;;23.10;99.90;;;;;;4953456;28;20674;-63
2022/08/15 05:48:33;;;;;;;13.32;11.68;;;23.20;99.90;;;;;;4956318;28;20201;-63
2022/08/15 05:51:10;;;;;;;12.52;11.32;;;23.40;99.90;;;;;;4963717;28;20196;-64
2022/08/15 05:53:58;;;;;;;11.90;10.70;;;23.50;99.90;;;;;;4960799;28;20204;-63
2022/08/15 05:57:02;;;;;;;12.15;10.98;;;23.60;99.90;;;;;;4953060;28;20678;-64
2022/08/15 05:59:35;;;;;;;11.75;10.55;;;23.80;99.90;;;;;;4949777;28;20207;-64
2022/08/15 06:02:27;;;;;;;12.02;10.90;;;23.80;99.90;;;;;;4969890;28;20218;-64
2022/08/15 06:05:11;;;;;;;11.18;10.07;;;23.80;99.90;;;;;;4955362;28;20405;-64
2022/08/15 06:07:38;;;;;;;12.75;11.45;;;24.00;99.90;;;;;;4946739;28;20182;-64
2022/08/15 06:10:25;;;;;;;12.50;11.27;;;24.10;99.90;;;;;;4957276;28;20296;-64
2022/08/15 06:12:56;;;;;;;12.27;11.00;;;24.10;99.90;;;;;;4955704;28;20241;-64
2022/08/15 06:15:36;;;;;;;12.55;11.40;;;24.10;99.90;;;;;;4953008;28;20350;-65
2022/08/15 06:18:07;;;;;;;14.02;12.45;;;24.10;99.90;;;;;;4964955;28;20294;-63
2022/08/15 06:20:55;;;;;;;13.73;12.25;;;24.10;99.90;;;;;;4955151;28;20287;-64
2022/08/15 06:23:37;;;;;;;12.88;11.70;;;24.10;99.90;;;;;;4958542;28;20620;-72
2022/08/15 06:26:11;;;;;;;14.73;13.15;;;24.20;99.90;;;;;;4966058;28;20200;-65
2022/08/15 06:28:57;;;;;;;12.48;11.13;;;24.20;99.90;;;;;;4953253;28;20293;-65
2022/08/15 06:31:37;;;;;;;12.07;10.95;;;24.20;99.90;;;;;;4963247;28;20189;-66
2022/08/15 06:34:08;;;;;;;13.32;11.43;;;24.20;99.90;;;;;;4959141;28;20222;-66
2022/08/15 06:36:43;;;;;;;12.90;11.60;;;24.20;99.90;;;;;;4960146;28;20239;-65
2022/08/15 06:39:21;;;;;;;12.35;11.15;;;24.20;99.90;;;;;;4955061;28;20198;-67
2022/08/15 06:42:16;;;;;;;12.55;11.25;;;24.20;99.90;;;;;;4959148;28;20344;-68
2022/08/15 06:44:42;;;;;;;13.45;12.15;;;24.20;99.90;;;;;;4954797;28;20211;-66
2022/08/15 06:47:08;;;;;;;12.60;11.48;;;24.30;99.90;;;;;;4968636;28;20209;-65
2022/08/15 06:49:46;;;;;;;14.05;12.07;;;24.50;99.90;;;;;;4965772;28;20208;-65
2022/08/15 06:52:15;;;;;;;16.90;11.60;;;24.50;99.90;;;;;;4958728;28;20289;-64
2022/08/15 06:54:41;;;;;;;13.23;11.95;;;24.60;99.90;;;;;;4959703;28;20564;-65
2022/08/15 06:57:09;;;;;;;12.90;11.68;;;24.60;99.90;;;;;;4975042;28;20197;-64
2022/08/15 07:00:08;;;;;;;12.23;11.02;;;24.70;99.90;;;;;;4969551;28;20205;-64
2022/08/15 07:02:47;;;;;;;12.82;11.57;;;24.70;99.90;;;;;;4960712;28;20683;-65
2022/08/15 07:05:20;;;;;;;13.05;11.70;;;24.80;99.90;;;;;;4959643;28;20257;-73
2022/08/15 07:07:57;;;;;;;12.35;11.15;;;24.90;99.90;;;;;;4958416;28;20702;-80
2022/08/15 07:10:46;;;;;;;12.35;11.13;;;25.00;99.90;;;;;;4949538;28;20200;-65
2022/08/15 07:13:16;;;;;;;11.90;10.75;;;25.10;99.90;;;;;;4957789;28;20204;-65
2022/08/15 07:15:56;;;;;;;12.75;11.63;;;25.20;99.90;;;;;;4962556;28;20186;-64
2022/08/15 07:18:30;;;;;;;12.80;11.65;;;25.30;99.90;;;;;;4957457;28;20283;-65
2022/08/15 07:21:05;;;;;;;11.82;10.63;;;25.50;99.90;;;;;;4956200;28;20267;-64
2022/08/15 07:23:33;;;;;;;11.93;10.80;;;25.50;99.90;;;;;;4955773;28;20206;-65
2022/08/15 07:26:11;;;;;;;12.70;11.45;;;25.60;99.90;;;;;;4966555;28;20267;-65
2022/08/15 07:28:49;;;;;;;12.57;11.35;;;25.80;99.90;;;;;;4957039;28;20201;-64
2022/08/15 07:31:21;;;;;;;9.95;9.05;;;25.90;99.90;;;;;;4958938;28;20524;-64
2022/08/15 07:33:50;;;;;;;9.80;8.80;;;25.90;99.90;;;;;;4955436;28;20214;-63
2022/08/15 07:36:26;;;;;;;11.07;10.00;;;25.90;99.90;;;;;;4958267;28;20267;-65
2022/08/15 07:38:53;;;;;;;11.68;9.35;;;25.90;99.90;;;;;;4957361;28;20208;-64
2022/08/15 07:41:30;;;;;;;10.23;9.32;;;26.00;99.90;;;;;;4959261;28;20251;-64
2022/08/15 07:44:20;;;;;;;9.85;8.98;;;26.00;99.90;;;;;;4957530;28;20203;-64
2022/08/15 07:46:56;;;;;;;9.70;8.82;;;26.10;99.90;;;;;;4966104;28;20953;-65
2022/08/15 07:49:31;;;;;;;9.73;8.82;;;26.10;99.90;;;;;;4949137;28;20680;-65
2022/08/15 07:52:16;;;;;;;9.80;8.80;;;26.20;99.90;;;;;;4981123;28;20209;-64
2022/08/15 07:54:41;;;;;;;9.23;8.43;;;26.20;99.90;;;;;;4954019;28;20206;-65
2022/08/15 07:57:36;;;;;;;10.18;9.13;;;26.20;99.90;;;;;;4978774;28;20194;-65
2022/08/15 08:00:12;;;;;;;9.70;8.85;;;26.20;99.90;;;;;;4959342;28;20684;-64
2022/08/15 08:02:53;;;;;;;10.90;8.93;;;26.20;99.90;;;;;;4958558;28;20190;-64
2022/08/15 08:05:21;;;;;;;9.00;7.47;;;26.30;99.90;;;;;;4960401;28;20189;-64
2022/08/15 08:07:49;;;;;;;8.35;7.55;;;26.30;99.90;;;;;;4960348;28;20227;-64
2022/08/15 08:10:27;;;;;;;7.88;7.18;;;26.50;99.90;;;;;;4954628;28;20182;-63
2022/08/15 08:13:09;;;;;;;8.60;7.70;;;26.60;99.90;;;;;;4960864;28;20189;-63
2022/08/15 08:15:44;;;;;;;8.52;7.45;;;26.60;99.90;;;;;;4965432;28;20317;-64
2022/08/15 08:18:20;;;;;;;8.05;7.43;;;26.70;99.90;;;;;;4954506;28;20193;-64
2022/08/15 08:21:03;;;;;;;8.25;7.55;;;26.80;99.90;;;;;;4957718;28;20201;-64
2022/08/15 08:23:29;;;;;;;8.43;7.63;;;26.80;99.90;;;;;;4954074;28;20294;-69
2022/08/15 08:26:10;;;;;;;8.80;8.00;;;26.90;99.90;;;;;;4959075;28;20581;-65
2022/08/15 08:29:03;;;;;;;10.65;9.10;;;26.90;99.90;;;;;;4956510;28;20307;-65
2022/08/15 08:31:45;;;;;;;9.23;8.52;;;26.90;99.90;;;;;;4956626;28;21063;-66
2022/08/15 08:34:21;;;;;;;11.60;9.30;;;27.00;99.90;;;;;;4956449;28;20206;-66
2022/08/15 08:37:21;;;;;;;11.38;8.98;;;27.10;99.90;;;;;;4957511;28;20237;-65
2022/08/15 08:43:11;;;;;;;13.38;9.90;;;27.10;99.90;;;;;;4958331;28;20204;-65
2022/08/15 08:45:47;;;;;;;9.70;8.82;;;26.90;99.90;;;;;;4958927;28;20182;-66
2022/08/15 08:48:27;;;;;;;9.43;8.52;;;26.90;99.90;;;;;;4954809;28;20181;-65
2022/08/15 08:51:21;;;;;;;9.85;8.95;;;27.10;99.90;;;;;;4956612;28;20205;-66
2022/08/15 08:53:58;;;;;;;9.23;7.97;;;27.40;99.90;;;;;;4954170;28;20296;-64
2022/08/15 08:56:46;;;;;;;8.98;8.07;;;27.60;99.90;;;;;;4963863;28;20240;-77
2022/08/15 08:59:25;;;;;;;9.73;8.20;;;27.90;99.90;;;;;;4946169;28;20210;-67
2022/08/15 09:02:00;;;;;;;9.23;8.52;;;28.10;99.60;;;;;;4957897;28;20253;-67
2022/08/15 09:04:44;;;;;;;9.05;8.25;;;28.20;99.20;;;;;;4947830;28;20213;-67
2022/08/15 09:07:16;;;;;;;10.30;8.45;;;28.20;99.00;;;;;;4956309;28;20890;-67
2022/08/15 09:09:44;;;;;;;9.75;8.90;;;28.20;98.70;;;;;;4956121;28;20276;-65
2022/08/15 09:15:13;;;;;;;9.13;8.23;;;28.30;98.50;;;;;;4963855;28;20205;-67
2022/08/15 09:17:39;;;;;;;9.48;8.57;;;28.50;98.20;;;;;;4956499;28;20637;-66
2022/08/15 09:20:10;;;;;;;9.75;8.80;;;28.50;98.20;;;;;;4958153;28;20742;-66
2022/08/15 09:22:36;;;;;;;8.93;8.23;;;28.50;98.10;;;;;;4957992;28;20213;-67
2022/08/15 09:25:02;;;;;;;9.13;8.32;;;28.50;98.30;;;;;;4957232;28;20197;-67
2022/08/15 09:27:44;;;;;;;9.05;8.15;;;28.60;97.60;;;;;;4959924;28;20607;-67
2022/08/15 09:30:12;;;;;;;8.10;7.43;;;28.70;97.10;;;;;;4961054;28;20672;-67
2022/08/15 09:33:01;;;;;;;8.45;7.75;;;28.90;97.10;;;;;;4956447;28;20225;-69
2022/08/15 09:35:32;;;;;;;8.73;8.00;;;29.00;96.50;;;;;;4962800;28;20234;-67
2022/08/15 09:38:26;;;;;;;9.20;8.40;;;29.10;96.20;;;;;;4961036;28;20204;-66
2022/08/15 09:41:20;;;;;;;8.85;8.02;;;29.20;95.90;;;;;;4956930;28;20648;-67
2022/08/15 09:44:09;;;;;;;9.70;8.80;;;29.30;95.50;;;;;;4945575;28;20210;-66
2022/08/15 09:47:00;;;;;;;9.40;7.75;;;29.40;95.40;;;;;;4966522;28;20227;-67
2022/08/15 09:50:03;;;;;;;8.57;7.88;;;29.60;94.80;;;;;;4965466;28;20392;-73
2022/08/15 09:52:44;;;;;;;8.82;8.13;;;29.60;94.90;;;;;;4963394;28;20221;-70
2022/08/15 09:55:25;;;;;;;8.52;7.82;;;29.60;94.10;;;;;;4961136;28;20241;-67
2022/08/15 09:57:54;;;;;;;9.48;8.63;;;29.60;94.10;;;;;;4950334;28;20190;-70
2022/08/15 10:00:39;;;;;;;8.52;7.82;;;29.70;94.00;;;;;;4952852;28;20224;-69
2022/08/15 10:03:21;;;;;;;9.38;8.57;;;30.00;93.70;;;;;;4950263;28;20241;-70
2022/08/15 10:06:01;;;;;;;9.48;8.65;;;30.10;93.20;;;;;;4960223;28;20421;-70
2022/08/15 10:08:56;;;;;;;10.55;9.52;;;30.00;92.90;;;;;;4961909;28;20190;-71
2022/08/15 10:11:40;;;;;;;8.70;8.00;;;29.80;92.80;;;;;;4958501;28;20185;-68
2022/08/15 10:14:14;;;;;;;10.20;9.18;;;29.80;93.00;;;;;;4955906;28;20202;-68
2022/08/15 10:16:42;;;;;;;10.00;8.13;;;29.90;92.90;;;;;;4959889;28;20289;-68
2022/08/15 10:19:29;;;;;;;10.05;9.25;;;30.00;92.70;;;;;;4961148;28;20358;-68
2022/08/15 10:21:56;;;;;;;10.07;8.82;;;30.00;92.70;;;;;;4961582;28;20256;-67
2022/08/15 10:24:36;;;;;;;9.85;8.07;;;30.50;92.80;;;;;;4961314;28;20806;-70
2022/08/15 10:27:22;;;;;;;9.38;8.55;;;30.90;91.50;;;;;;4958623;28;20264;-68
2022/08/15 10:30:10;;;;;;;8.48;7.75;;;31.10;90.40;;;;;;4957131;28;20668;-67
2022/08/15 10:32:41;;;;;;;8.23;7.63;;;31.10;88.30;;;;;;4958806;28;20236;-69
2022/08/15 10:35:27;;;;;;;9.90;9.00;;;30.90;88.50;;;;;;4960880;28;20226;-68
2022/08/15 10:38:07;;;;;;;9.60;8.60;;;30.60;89.20;;;;;;4951228;28;20182;-69
2022/08/15 10:40:47;;;;;;;9.45;8.60;;;30.70;90.20;;;;;;4949649;28;20214;-68
2022/08/15 10:43:32;;;;;;;9.32;8.52;;;31.10;88.70;;;;;;4950877;28;20546;-68
2022/08/15 10:46:19;;;;;;;8.00;7.35;;;31.30;87.80;;;;;;4968711;28;20185;-69
2022/08/15 10:49:03;;;;;;;9.02;8.13;;;31.30;86.90;;;;;;4969568;28;20624;-69
2022/08/15 10:51:54;;;;;;;8.60;7.80;;;31.30;86.30;;;;;;4964611;28;20272;-69
2022/08/15 10:55:02;;;;;;;8.82;8.02;;;30.80;87.20;;;;;;4955982;28;20736;-69
2022/08/15 10:57:46;;;;;;;9.23;8.43;;;30.70;87.40;;;;;;4962908;28;20181;-69
2022/08/15 11:00:32;;;;;;;8.73;8.02;;;30.90;87.80;;;;;;4963001;28;20478;-69
2022/08/15 11:03:02;;;;;;;9.02;8.32;;;31.10;86.40;;;;;;4964355;28;20409;-68
2022/08/15 11:05:28;;;;;;;8.98;8.05;;;31.40;84.90;;;;;;4952444;28;20205;-69
2022/08/15 11:07:55;;;;;;;8.95;8.02;;;31.70;84.10;;;;;;4981971;28;20715;-69
2022/08/15 11:10:23;;;;;;;9.00;8.15;;;32.10;83.60;;;;;;4960702;28;20202;-69
2022/08/15 11:12:54;;;;;;;8.35;7.57;;;32.20;81.50;;;;;;4960706;28;20202;-66
2022/08/15 11:15:24;;;;;;;8.27;7.63;;;32.30;80.40;;;;;;4959711;28;20238;-66
2022/08/15 11:18:00;;;;;;;8.02;7.22;;;32.10;79.50;;;;;;4959434;28;20192;-67
2022/08/15 11:20:38;;;;;;;8.20;7.47;;;31.90;78.90;;;;;;4951440;28;20217;-66
2022/08/15 11:23:04;;;;;;;8.73;7.82;;;31.90;79.80;;;;;;4965150;28;20219;-68
2022/08/15 11:25:34;;;;;;;8.57;7.78;;;32.00;78.80;;;;;;4958770;28;20240;-67
2022/08/15 11:28:28;;;;;;;9.15;8.45;;;31.80;78.10;;;;;;4965916;28;20190;-67
2022/08/15 11:31:17;;;;;;;8.27;7.57;;;32.00;79.50;;;;;;4961814;28;20210;-67
2022/08/15 11:33:48;;;;;;;8.40;7.70;;;32.50;78.80;;;;;;4960492;28;20222;-67
2022/08/15 11:36:24;;;;;;;8.13;7.53;;;33.10;75.20;;;;;;4957708;28;20229;-67
2022/08/15 11:39:01;;;;;;;8.30;7.70;;;33.50;74.00;;;;;;4958481;28;20422;-68
2022/08/15 11:41:30;;;;;;;9.15;8.43;;;34.00;73.40;;;;;;4962890;28;20212;-68
2022/08/15 11:43:59;;;;;;;8.60;7.80;;;34.40;72.20;;;;;;4964409;28;20261;-68
2022/08/15 11:46:26;;;;;;;10.10;9.07;;;34.90;70.00;;;;;;4958599;28;20173;-69
2022/08/15 11:49:08;;;;;;;8.40;7.80;;;34.80;68.40;;;;;;4975644;28;20202;-68
2022/08/15 11:51:40;;;;;;;8.32;7.53;;;34.90;68.10;;;;;;4956576;28;20191;-68
2022/08/15 11:54:11;;;;;;;8.07;7.38;;;35.30;67.00;;;;;;4963146;28;20572;-68
2022/08/15 11:56:57;;;;;;;9.02;8.23;;;35.50;66.00;;;;;;4951940;28;20218;-68
2022/08/15 11:59:24;;;;;;;8.48;7.85;;;35.70;65.00;;;;;;4953626;28;20197;-68
2022/08/15 12:02:06;;;;;;;8.77;7.97;;;35.50;63.60;;;;;;4950776;28;20214;-69
2022/08/15 12:04:36;;;;;;;8.18;7.50;;;35.60;62.90;;;;;;4946926;28;20217;-69
2022/08/15 12:07:14;;;;;;;7.95;7.28;;;36.00;61.50;;;;;;4960697;28;20194;-69
2022/08/15 12:09:49;;;;;;;8.80;8.00;;;36.70;60.40;;;;;;4959261;28;20212;-68
2022/08/15 12:12:26;;;;;;;8.32;7.63;;;37.40;58.60;;;;;;4960512;28;20236;-68
2022/08/15 12:14:56;;;;;;;8.43;7.80;;;37.60;57.00;;;;;;4964999;28;20259;-69
2022/08/15 12:17:28;;;;;;;8.60;7.80;;;37.40;57.60;;;;;;4957845;28;20579;-68
2022/08/15 12:19:55;;;;;;;8.32;7.68;;;36.90;57.00;;;;;;4956854;28;20213;-68
2022/08/15 12:22:35;;;;;;;8.30;7.60;;;35.90;57.90;;;;;;4979346;28;20287;-68
2022/08/15 12:25:01;;;;;;;8.57;7.97;;;35.20;58.90;;;;;;4962165;28;20209;-68
2022/08/15 12:27:28;;;;;;;8.50;7.80;;;35.10;58.80;;;;;;4957100;28;20209;-68
2022/08/15 12:29:53;;;;;;;8.50;7.80;;;34.70;59.30;;;;;;4959989;28;20210;-69
2022/08/15 12:32:19;;;;;;;7.88;7.18;;;35.10;58.90;;;;;;4959633;28;20295;-68
2022/08/15 12:34:54;;;;;;;8.50;7.78;;;36.30;57.50;;;;;;4967074;28;20240;-69
2022/08/15 12:37:24;;;;;;;7.95;7.35;;;37.70;55.40;;;;;;4960276;28;20201;-69
2022/08/15 12:39:55;;;;;;;7.45;6.78;;;39.10;53.10;;;;;;4950724;28;20569;-68
2022/08/15 12:42:30;;;;;;;8.18;7.57;;;40.00;50.60;;;;;;4965578;28;20639;-69
2022/08/15 12:44:59;;;;;;;8.15;7.00;;;40.40;48.50;;;;;;4959954;28;20860;-69
2022/08/15 12:47:28;;;;;;;7.97;7.30;;;41.20;47.00;;;;;;4952351;28;20715;-68
2022/08/15 12:49:53;;;;;;;7.35;6.80;;;41.70;45.80;;;;;;4961130;28;20233;-68
2022/08/15 12:52:19;;;;;;;8.70;8.00;;;41.70;45.20;;;;;;4976754;28;20284;-68
2022/08/15 12:54:48;;;;;;;7.97;7.38;;;42.30;44.40;;;;;;4974834;28;20281;-68
2022/08/15 12:57:15;;;;;;;8.40;7.70;;;42.20;42.90;;;;;;4968230;28;20199;-68
2022/08/15 12:59:40;;;;;;;7.68;7.18;;;41.80;43.80;;;;;;4964481;28;20206;-68
2022/08/15 13:02:09;;;;;;;7.93;7.22;;;41.10;43.80;;;;;;4954547;28;20525;-68
2022/08/15 13:04:35;;;;;;;7.65;6.93;;;40.80;43.90;;;;;;4971169;28;20210;-68
2022/08/15 13:07:01;;;;;;;7.80;7.20;;;41.10;43.40;;;;;;4950959;28;20632;-68
2022/08/15 13:09:30;;;;;;;8.48;7.57;;;40.40;43.40;;;;;;4971807;28;20617;-68
2022/08/15 13:11:59;;;;;;;9.20;7.50;;;38.70;46.00;;;;;;4953841;28;20948;-68
2022/08/15 13:14:25;;;;;;;8.52;7.72;;;37.30;47.90;;;;;;4978467;28;20200;-68